Terminal Aerodrome Forecast
Issued by NWS

Home | Current Version | Previous Version | Text Only | Print | Product List | Glossary On
Versions: 1 2 3 4 5 6 7 8 9 10 11 12 13 14 15 16 17 18 19 20 21 22 23 24 25 26 27 28 29 30 31
000
FTUS42 KRAH 270323 AAA
TAFINT
TAF AMD
KINT 270323Z 2703/2724 17007KT P6SM SHRA SCT030 BKN050 OVC100
      TEMPO 2704/2706 2SM -TSRA BKN020CB
     FM271000 20004KT 5SM BR BKN006
     FM271330 22006KT P6SM BKN015
     FM271700 22008KT P6SM BKN035 BKN250 PROB30 2718/2723 VRB10G25KT
      2SM TSRA BKN025CB=

USA.gov is the U.S. government's official web portal to all federal, state and local government web resources and services.